sensor_id;sensor_type;location;lat;lon;timestamp;pressure;altitude;pressure_sealevel;temperature;humidity
50650;BME280;36621;60.058;30.346;2023-03-13T00:04:26;99257.41;;;-2.70;64.14
50650;BME280;36621;60.058;30.346;2023-03-13T00:11:58;99245.88;;;-2.70;65.86
50650;BME280;36621;60.058;30.346;2023-03-13T00:19:30;99264.50;;;-2.82;63.87
50650;BME280;36621;60.058;30.346;2023-03-13T00:27:03;99265.84;;;-2.91;63.81
50650;BME280;36621;60.058;30.346;2023-03-13T00:34:35;99283.41;;;-2.84;63.79
50650;BME280;36621;60.058;30.346;2023-03-13T00:42:08;99279.31;;;-2.86;63.62
50650;BME280;36621;60.058;30.346;2023-03-13T00:49:40;99268.78;;;-3.00;63.51
50650;BME280;36621;60.058;30.346;2023-03-13T00:57:12;99294.69;;;-3.00;63.12
50650;BME280;36621;60.058;30.346;2023-03-13T01:04:45;99297.06;;;-3.17;62.48
50650;BME280;36621;60.058;30.346;2023-03-13T01:12:18;99304.50;;;-3.19;62.91
50650;BME280;36621;60.058;30.346;2023-03-13T01:19:50;99286.91;;;-3.59;63.38
50650;BME280;36621;60.058;30.346;2023-03-13T01:27:22;99325.47;;;-3.55;63.10
50650;BME280;36621;60.058;30.346;2023-03-13T01:34:54;99336.22;;;-3.68;63.34
50650;BME280;36621;60.058;30.346;2023-03-13T01:42:27;99337.09;;;-3.81;63.18
50650;BME280;36621;60.058;30.346;2023-03-13T01:49:59;99366.25;;;-3.86;63.80
50650;BME280;36621;60.058;30.346;2023-03-13T01:57:53;99363.84;;;-4.01;63.50
50650;BME280;36621;60.058;30.346;2023-03-13T02:05:28;99389.66;;;-4.02;63.33
50650;BME280;36621;60.058;30.346;2023-03-13T02:13:02;99401.19;;;-4.08;63.32
50650;BME280;36621;60.058;30.346;2023-03-13T02:20:34;99406.56;;;-4.21;63.26
50650;BME280;36621;60.058;30.346;2023-03-13T02:28:15;99424.19;;;-4.20;63.61
50650;BME280;36621;60.058;30.346;2023-03-13T02:35:48;99424.00;;;-4.25;63.56
50650;BME280;36621;60.058;30.346;2023-03-13T02:43:26;99426.06;;;-4.34;64.40
50650;BME280;36621;60.058;30.346;2023-03-13T02:51:02;99436.50;;;-4.32;64.36
50650;BME280;36621;60.058;30.346;2023-03-13T02:58:40;99456.19;;;-4.33;63.71
50650;BME280;36621;60.058;30.346;2023-03-13T03:06:13;99462.34;;;-4.40;63.87
50650;BME280;36621;60.058;30.346;2023-03-13T03:13:46;99466.25;;;-4.49;63.07
50650;BME280;36621;60.058;30.346;2023-03-13T03:21:23;99443.09;;;-4.62;63.83
50650;BME280;36621;60.058;30.346;2023-03-13T03:28:57;99494.13;;;-4.45;63.33
50650;BME280;36621;60.058;30.346;2023-03-13T03:36:30;99505.16;;;-4.48;63.56
50650;BME280;36621;60.058;30.346;2023-03-13T03:44:06;99474.63;;;-4.79;62.92
50650;BME280;36621;60.058;30.346;2023-03-13T03:51:50;99502.69;;;-4.69;63.93
50650;BME280;36621;60.058;30.346;2023-03-13T03:59:29;99524.81;;;-4.62;65.33
50650;BME280;36621;60.058;30.346;2023-03-13T04:07:03;99512.31;;;-4.82;65.48
50650;BME280;36621;60.058;30.346;2023-03-13T04:14:37;99525.00;;;-4.77;65.14
50650;BME280;36621;60.058;30.346;2023-03-13T04:22:12;99534.63;;;-4.83;64.96
50650;BME280;36621;60.058;30.346;2023-03-13T04:29:51;99572.56;;;-4.61;65.46
50650;BME280;36621;60.058;30.346;2023-03-13T17:27:53;99794.50;;;-1.41;56.94
50650;BME280;36621;60.058;30.346;2023-03-13T17:35:25;99939.31;;;-0.46;56.76
50650;BME280;36621;60.058;30.346;2023-03-13T17:42:58;99924.88;;;-0.45;55.82
50650;BME280;36621;60.058;30.346;2023-03-13T17:50:30;99912.94;;;-0.49;54.70
50650;BME280;36621;60.058;30.346;2023-03-13T17:58:03;99880.53;;;-0.66;54.94
50650;BME280;36621;60.058;30.346;2023-03-13T18:05:36;99877.00;;;-0.42;56.08
50650;BME280;36621;60.058;30.346;2023-03-13T18:13:08;99865.59;;;-0.37;55.99
50650;BME280;36621;60.058;30.346;2023-03-13T18:20:41;99850.72;;;-0.33;55.29
50650;BME280;36621;60.058;30.346;2023-03-13T18:28:13;99774.59;;;-0.76;56.16
50650;BME280;36621;60.058;30.346;2023-03-13T18:35:45;99824.53;;;-0.38;55.01
50650;BME280;36621;60.058;30.346;2023-03-13T18:43:21;99802.56;;;-0.28;57.93
50650;BME280;36621;60.058;30.346;2023-03-13T18:50:56;99797.94;;;-0.21;56.71
50650;BME280;36621;60.058;30.346;2023-03-13T18:58:31;99752.72;;;-0.36;56.39
50650;BME280;36621;60.058;30.346;2023-03-13T19:06:14;99752.31;;;-0.21;56.49
50650;BME280;36621;60.058;30.346;2023-03-13T19:13:52;99728.03;;;-0.07;57.27
50650;BME280;36621;60.058;30.346;2023-03-13T19:21:26;99641.13;;;-0.55;56.74
50650;BME280;36621;60.058;30.346;2023-03-13T19:29:03;99677.03;;;-0.07;57.08
50650;BME280;36621;60.058;30.346;2023-03-13T19:36:45;99660.34;;;-0.09;57.71
50650;BME280;36621;60.058;30.346;2023-03-13T19:44:19;99634.91;;;-0.07;56.55
50650;BME280;36621;60.058;30.346;2023-03-13T19:51:51;99610.78;;;0.05;56.53
50650;BME280;36621;60.058;30.346;2023-03-13T19:59:24;99585.81;;;0.16;58.27
50650;BME280;36621;60.058;30.346;2023-03-13T20:06:58;99537.84;;;0.08;58.05
50650;BME280;36621;60.058;30.346;2023-03-13T20:14:30;99544.38;;;0.24;56.96
50650;BME280;36621;60.058;30.346;2023-03-13T20:22:02;99514.75;;;0.31;56.77
50650;BME280;36621;60.058;30.346;2023-03-13T20:29:42;99469.44;;;0.23;57.60
50650;BME280;36621;60.058;30.346;2023-03-13T20:37:18;99446.56;;;0.20;57.27
50650;BME280;36621;60.058;30.346;2023-03-13T20:44:51;99445.63;;;0.38;56.03
50650;BME280;36621;60.058;30.346;2023-03-13T20:52:25;99424.81;;;0.45;54.49
50650;BME280;36621;60.058;30.346;2023-03-13T20:59:58;99402.38;;;0.51;56.30
50650;BME280;36621;60.058;30.346;2023-03-13T21:07:32;99392.22;;;0.54;57.21
50650;BME280;36621;60.058;30.346;2023-03-13T21:15:09;99328.44;;;0.32;54.77
50650;BME280;36621;60.058;30.346;2023-03-13T21:22:45;99333.13;;;0.54;54.85
50650;BME280;36621;60.058;30.346;2023-03-13T21:30:19;99294.94;;;0.51;56.24
50650;BME280;36621;60.058;30.346;2023-03-13T21:37:51;99272.41;;;0.52;55.23
50650;BME280;36621;60.058;30.346;2023-03-13T21:45:23;99242.00;;;0.64;54.61
50650;BME280;36621;60.058;30.346;2023-03-13T21:52:55;99188.50;;;0.45;53.79
50650;BME280;36621;60.058;30.346;2023-03-13T22:00:28;99162.84;;;0.72;57.08
50650;BME280;36621;60.058;30.346;2023-03-13T22:08:00;99151.84;;;0.73;56.28
50650;BME280;36621;60.058;30.346;2023-03-13T22:15:33;99089.94;;;0.46;58.88
50650;BME280;36621;60.058;30.346;2023-03-13T22:23:05;99109.38;;;0.70;57.96
50650;BME280;36621;60.058;30.346;2023-03-13T22:30:38;99069.34;;;0.51;58.13
50650;BME280;36621;60.058;30.346;2023-03-13T22:38:10;99042.19;;;0.48;61.42
50650;BME280;36621;60.058;30.346;2023-03-13T22:45:46;99012.66;;;0.48;63.59
50650;BME280;36621;60.058;30.346;2023-03-13T22:53:20;98983.47;;;0.34;64.63
50650;BME280;36621;60.058;30.346;2023-03-13T23:00:54;98916.50;;;0.06;68.46
50650;BME280;36621;60.058;30.346;2023-03-13T23:08:25;98917.94;;;-0.09;70.30
50650;BME280;36621;60.058;30.346;2023-03-13T23:15:58;98897.84;;;-0.06;71.25
50650;BME280;36621;60.058;30.346;2023-03-13T23:23:30;98848.16;;;-0.31;71.85
50650;BME280;36621;60.058;30.346;2023-03-13T23:31:09;98788.56;;;-0.55;73.62
50650;BME280;36621;60.058;30.346;2023-03-13T23:38:41;98793.22;;;-0.28;76.21
50650;BME280;36621;60.058;30.346;2023-03-13T23:46:18;98741.66;;;-0.36;74.86
50650;BME280;36621;60.058;30.346;2023-03-13T23:53:51;98707.34;;;-0.33;75.06
